Time;durP1;ratioP1;P1;durP2;ratioP2;P2;SDS_P1;SDS_P2;PMS_P1;PMS_P2;Temp;Humidity;BMP_temperature;BMP_pressure;BME280_temperature;BME280_humidity;BME280_pressure;Samples;Min_cycle;Max_cycle;Signal;HPM_P1;HPM_P2
2023/03/17 00:01:33;;;;;;;;;;;;;;;5.72;48.47;101370.19;4177398;28;20028;-65
2023/03/17 00:03:36;;;;;;;;;;;;;;;5.70;48.72;101370.31;4177696;28;20040;-66
2023/03/17 00:05:38;;;;;;;;;;;;;;;5.68;48.71;101364.25;4177847;28;20020;-65
2023/03/17 00:07:40;;;;;;;;;;;;;;;5.67;48.74;101370.59;4176764;28;20023;-65
2023/03/17 00:09:42;;;;;;;;;;;;;;;5.62;48.57;101363.94;4178078;28;20023;-65
2023/03/17 00:11:44;;;;;;;;;;;;;;;5.65;48.86;101377.06;4177117;28;20011;-65
2023/03/17 00:13:47;;;;;;;;;;;;;;;5.66;48.79;101374.25;4177912;28;20027;-64
2023/03/17 00:15:51;;;;;;;;;;;;;;;5.66;48.90;101365.34;4177975;28;19932;-66
2023/03/17 00:17:55;;;;;;;;;;;;;;;5.60;48.74;101366.75;4177028;28;20365;-65
2023/03/17 00:19:57;;;;;;;;;;;;;;;5.56;48.84;101371.50;4176856;28;20031;-65
2023/03/17 00:21:59;;;;;;;;;;;;;;;5.54;48.90;101369.94;4176941;28;20008;-65
2023/03/17 00:24:01;;;;;;;;;;;;;;;5.52;48.92;101361.19;4177649;28;20020;-65
2023/03/17 00:26:04;;;;;;;;;;;;;;;5.50;49.15;101349.72;4178440;28;20020;-66
2023/03/17 00:28:16;;;;;;;;;;;;;;;5.49;49.05;101345.38;4176932;28;20055;-65
2023/03/17 00:30:20;;;;;;;;;;;;;;;5.48;49.26;101344.50;4168572;28;20020;-65
2023/03/17 00:32:22;;;;;;;;;;;;;;;5.47;49.04;101332.09;4177265;28;20015;-65
2023/03/17 00:34:28;;;;;;;;;;;;;;;5.42;48.96;101334.28;4177336;28;20047;-66
2023/03/17 00:36:31;;;;;;;;;;;;;;;5.37;49.22;101329.31;4177403;28;19924;-65
2023/03/17 00:38:33;;;;;;;;;;;;;;;5.36;49.32;101334.81;4177228;28;20035;-65
2023/03/17 00:40:36;;;;;;;;;;;;;;;5.32;49.50;101320.81;4177140;28;20023;-65
2023/03/17 00:42:38;;;;;;;;;;;;;;;5.33;49.44;101329.69;4175952;28;20025;-64
2023/03/17 00:44:40;;;;;;;;;;;;;;;5.34;49.74;101329.56;4177646;28;20044;-64
2023/03/17 00:46:42;;;;;;;;;;;;;;;5.33;49.67;101314.50;4167353;28;20015;-65
2023/03/17 00:48:44;;;;;;;;;;;;;;;5.33;49.68;101317.19;4167753;28;20031;-65
2023/03/17 00:50:48;;;;;;;;;;;;;;;5.29;49.47;101313.03;4164442;28;20496;-66
2023/03/17 00:52:51;;;;;;;;;;;;;;;5.20;49.83;101300.41;4176380;28;20015;-65
2023/03/17 00:54:53;;;;;;;;;;;;;;;5.24;49.95;101299.19;4176846;28;20023;-66
2023/03/17 00:56:57;;;;;;;;;;;;;;;5.22;50.02;101301.16;4177744;28;20433;-64
2023/03/17 00:58:59;;;;;;;;;;;;;;;5.24;50.26;101288.47;4178001;28;20011;-66
2023/03/17 01:01:01;;;;;;;;;;;;;;;5.25;50.29;101290.19;4176976;28;20336;-66
2023/03/17 01:03:03;;;;;;;;;;;;;;;5.24;50.33;101280.44;4175351;28;20446;-65
2023/03/17 01:05:06;;;;;;;;;;;;;;;5.22;50.16;101269.88;4177067;28;19947;-65
2023/03/17 01:07:12;;;;;;;;;;;;;;;5.21;50.47;101280.72;4176977;28;19986;-66
2023/03/17 01:09:15;;;;;;;;;;;;;;;5.19;50.43;101274.63;4166159;28;20331;-64
2023/03/17 01:11:21;;;;;;;;;;;;;;;5.19;50.50;101280.00;4176783;28;20015;-63
2023/03/17 01:13:24;;;;;;;;;;;;;;;5.20;50.76;101284.34;4192011;28;19978;-64
2023/03/17 01:15:29;;;;;;;;;;;;;;;5.19;50.66;101274.63;4177187;28;20015;-63
2023/03/17 01:17:32;;;;;;;;;;;;;;;5.18;50.74;101286.31;4175416;28;20925;-64
2023/03/17 01:19:35;;;;;;;;;;;;;;;5.18;50.76;101276.44;4176404;28;20461;-66
2023/03/17 01:21:37;;;;;;;;;;;;;;;5.19;50.81;101271.97;4175409;28;19925;-66
2023/03/17 01:23:42;;;;;;;;;;;;;;;5.19;50.72;101267.44;4177084;28;19968;-65
2023/03/17 01:25:44;;;;;;;;;;;;;;;5.19;50.89;101266.59;4177279;28;20482;-66
2023/03/17 01:27:46;;;;;;;;;;;;;;;5.17;50.90;101271.22;4177009;28;20047;-66
2023/03/17 01:29:52;;;;;;;;;;;;;;;5.17;50.95;101274.78;4177030;28;20023;-66
2023/03/17 01:31:54;;;;;;;;;;;;;;;5.17;50.96;101274.78;4176194;28;20019;-65
2023/03/17 01:33:56;;;;;;;;;;;;;;;5.16;51.21;101269.53;4163672;28;20629;-66
2023/03/17 01:35:58;;;;;;;;;;;;;;;5.14;51.23;101264.31;4166422;28;20008;-66
2023/03/17 01:38:01;;;;;;;;;;;;;;;5.12;51.39;101257.38;4179995;28;19925;-65
2023/03/17 01:40:05;;;;;;;;;;;;;;;5.11;51.50;101264.56;4179901;28;20015;-66
2023/03/17 01:42:07;;;;;;;;;;;;;;;5.11;51.40;101259.22;4194567;28;20023;-66
2023/03/17 01:44:12;;;;;;;;;;;;;;;5.09;51.49;101261.16;4180082;28;20367;-67
2023/03/17 01:46:19;;;;;;;;;;;;;;;5.08;51.42;101259.47;4179568;28;20376;-66
2023/03/17 01:48:22;;;;;;;;;;;;;;;5.09;51.64;101245.09;4177459;28;20521;-66
2023/03/17 01:50:24;;;;;;;;;;;;;;;5.08;51.51;101246.09;4170425;28;20052;-66
2023/03/17 01:52:26;;;;;;;;;;;;;;;5.08;51.67;101246.09;4179206;28;20044;-66
2023/03/17 01:54:30;;;;;;;;;;;;;;;5.07;51.64;101248.88;4178588;28;20037;-66
2023/03/17 01:56:33;;;;;;;;;;;;;;;5.04;51.82;101242.78;4170130;28;20011;-67
2023/03/17 01:58:36;;;;;;;;;;;;;;;5.03;51.73;101232.22;4171095;28;19929;-66
2023/03/17 02:00:38;;;;;;;;;;;;;;;5.02;51.80;101226.00;4195066;28;20059;-66
2023/03/17 02:02:42;;;;;;;;;;;;;;;4.99;51.85;101215.56;4178976;28;20421;-66
2023/03/17 02:04:44;;;;;;;;;;;;;;;5.02;51.97;101217.97;4194975;28;20034;-66
2023/03/17 02:06:46;;;;;;;;;;;;;;;5.02;51.73;101225.19;4177240;28;20474;-66
2023/03/17 02:08:48;;;;;;;;;;;;;;;5.01;51.93;101226.16;4194870;28;20702;-67
2023/03/17 02:10:51;;;;;;;;;;;;;;;4.97;51.93;101228.25;4179826;28;20015;-66
2023/03/17 02:12:55;;;;;;;;;;;;;;;4.96;51.78;101234.56;4194513;28;20020;-65
2023/03/17 02:14:57;;;;;;;;;;;;;;;4.96;51.94;101225.69;4178082;28;20075;-66
2023/03/17 02:16:59;;;;;;;;;;;;;;;4.97;52.00;101208.63;4177905;28;20491;-66
2023/03/17 02:19:01;;;;;;;;;;;;;;;4.94;51.97;101217.78;4177752;28;20608;-66
2023/03/17 02:21:19;;;;;;;;;;;;;;;4.92;52.09;101209.03;4195111;28;20056;-66
2023/03/17 02:23:22;;;;;;;;;;;;;;;4.90;52.06;101210.97;4178637;28;20036;-72
2023/03/17 02:25:24;;;;;;;;;;;;;;;4.91;51.90;101209.19;4170729;28;20461;-67
2023/03/17 02:27:28;;;;;;;;;;;;;;;4.90;52.04;101204.78;4179155;28;20045;-67
2023/03/17 02:29:31;;;;;;;;;;;;;;;4.90;51.97;101197.59;4194945;28;20021;-66
2023/03/17 02:31:33;;;;;;;;;;;;;;;4.92;51.97;101202.81;4179269;28;20024;-66
2023/03/17 02:33:35;;;;;;;;;;;;;;;4.88;51.96;101196.88;4179352;28;20020;-66
2023/03/17 02:35:37;;;;;;;;;;;;;;;4.87;52.05;101201.41;4178900;28;20471;-65
2023/03/17 02:37:40;;;;;;;;;;;;;;;4.87;51.96;101200.53;4178252;28;20470;-66
2023/03/17 02:39:44;;;;;;;;;;;;;;;4.85;52.03;101203.34;4179068;28;19986;-66
2023/03/17 02:41:46;;;;;;;;;;;;;;;4.83;51.95;101199.94;4179059;28;20035;-66
2023/03/17 02:43:49;;;;;;;;;;;;;;;4.82;51.97;101200.91;4177932;28;20024;-66
2023/03/17 02:45:51;;;;;;;;;;;;;;;4.85;51.96;101205.19;4179686;28;20028;-66
2023/03/17 02:47:53;;;;;;;;;;;;;;;4.84;51.86;101198.97;4178738;28;20011;-66
2023/03/17 02:49:55;;;;;;;;;;;;;;;4.83;52.07;101202.63;4179225;28;20012;-66
2023/03/17 02:51:57;;;;;;;;;;;;;;;4.85;52.05;101199.81;4178257;28;20027;-66
2023/03/17 02:53:59;;;;;;;;;;;;;;;4.85;51.93;101197.16;4178960;28;20019;-66
2023/03/17 02:56:02;;;;;;;;;;;;;;;4.85;51.94;101189.13;4178543;28;20350;-66
2023/03/17 02:58:04;;;;;;;;;;;;;;;4.84;51.92;101195.44;4178212;28;20027;-66
2023/03/17 03:00:09;;;;;;;;;;;;;;;4.85;52.16;101191.78;4178342;28;20462;-66
2023/03/17 03:02:11;;;;;;;;;;;;;;;4.86;52.02;101193.50;4178255;28;20446;-66
2023/03/17 03:04:13;;;;;;;;;;;;;;;4.83;52.17;101189.25;4178801;28;20377;-65
2023/03/17 03:06:15;;;;;;;;;;;;;;;4.83;51.86;101181.22;4179130;28;20032;-66
2023/03/17 03:08:17;;;;;;;;;;;;;;;4.83;52.10;101188.41;4177957;28;20363;-67
2023/03/17 03:10:20;;;;;;;;;;;;;;;4.84;51.96;101179.38;4178411;28;20004;-65
2023/03/17 03:12:23;;;;;;;;;;;;;;;4.84;51.88;101182.06;4176009;28;20023;-66
2023/03/17 03:14:25;;;;;;;;;;;;;;;4.82;51.85;101190.22;4176879;28;20454;-64
2023/03/17 03:16:27;;;;;;;;;;;;;;;4.82;51.98;101192.88;4176504;28;20019;-66
2023/03/17 03:18:29;;;;;;;;;;;;;;;4.82;51.96;101190.22;4177163;28;20020;-62
2023/03/17 03:20:32;;;;;;;;;;;;;;;4.81;51.89;101190.34;4175218;28;19975;-64
2023/03/17 03:22:34;;;;;;;;;;;;;;;4.80;51.81;101202.03;4176697;28;20028;-64
2023/03/17 03:24:36;;;;;;;;;;;;;;;4.77;51.97;101199.63;4177140;28;20013;-64
2023/03/17 03:26:38;;;;;;;;;;;;;;;4.75;51.92;101202.44;4176690;28;20027;-65
2023/03/17 03:28:41;;;;;;;;;;;;;;;4.73;52.02;101204.34;4178685;28;20577;-64
2023/03/17 03:30:44;;;;;;;;;;;;;;;4.69;52.03;101208.28;4178071;28;20011;-65
2023/03/17 03:32:46;;;;;;;;;;;;;;;4.68;52.14;101209.25;4177579;28;20028;-64
2023/03/17 03:34:48;;;;;;;;;;;;;;;4.67;51.92;101219.09;4178085;28;20060;-64
2023/03/17 03:36:50;;;;;;;;;;;;;;;4.71;51.91;101224.22;4178221;28;20011;-65
2023/03/17 03:38:52;;;;;;;;;;;;;;;4.70;51.86;101212.63;4177182;28;20033;-63
2023/03/17 03:40:54;;;;;;;;;;;;;;;4.69;51.99;101217.16;4178647;28;20019;-64
2023/03/17 03:42:56;;;;;;;;;;;;;;;4.72;52.03;101207.16;4178039;28;20019;-64
2023/03/17 03:44:59;;;;;;;;;;;;;;;4.69;51.95;101206.44;4178549;28;20015;-65
2023/03/17 03:47:01;;;;;;;;;;;;;;;4.62;52.12;101202.56;4177657;28;20016;-65
2023/03/17 03:49:03;;;;;;;;;;;;;;;4.67;51.98;101207.53;4178391;28;20055;-65
2023/03/17 03:51:06;;;;;;;;;;;;;;;4.66;51.94;101198.66;4178591;28;20015;-64
2023/03/17 03:53:08;;;;;;;;;;;;;;;4.65;51.70;101204.16;4177968;28;20056;-67
2023/03/17 03:55:10;;;;;;;;;;;;;;;4.64;51.98;101200.63;4178325;28;20027;-66
2023/03/17 03:57:12;;;;;;;;;;;;;;;4.63;51.86;101204.28;4177964;28;20016;-65
2023/03/17 03:59:15;;;;;;;;;;;;;;;4.64;51.98;101197.09;4177698;28;20086;-64
2023/03/17 04:01:18;;;;;;;;;;;;;;;4.64;51.63;101202.44;4178019;28;19932;-63
2023/03/17 04:03:20;;;;;;;;;;;;;;;4.65;51.69;101198.81;4176833;28;20311;-64
2023/03/17 04:05:22;;;;;;;;;;;;;;;4.66;51.72;101200.50;4178439;28;20381;-64
2023/03/17 04:07:24;;;;;;;;;;;;;;;4.68;51.72;101201.22;4177871;28;20020;-66
2023/03/17 04:09:26;;;;;;;;;;;;;;;4.65;51.44;101205.00;4177995;28;20043;-66
2023/03/17 04:11:28;;;;;;;;;;;;;;;4.63;51.59;101201.59;4177689;28;20674;-65
2023/03/17 04:13:30;;;;;;;;;;;;;;;4.60;51.52;101201.00;4178143;28;20023;-65
2023/03/17 04:15:32;;;;;;;;;;;;;;;4.59;51.58;101189.47;4178056;28;20356;-65
2023/03/17 04:17:36;;;;;;;;;;;;;;;4.59;51.57;101194.81;4177050;28;20027;-65
2023/03/17 04:19:38;;;;;;;;;;;;;;;4.60;51.54;101196.50;4177612;28;20011;-66
2023/03/17 04:21:41;;;;;;;;;;;;;;;4.58;51.35;101186.94;4176991;28;20365;-65
2023/03/17 04:23:43;;;;;;;;;;;;;;;4.57;51.51;101188.72;4177155;28;20047;-66
2023/03/17 04:25:45;;;;;;;;;;;;;;;4.58;51.56;101185.09;4176913;28;20024;-66
2023/03/17 04:27:47;;;;;;;;;;;;;;;4.58;51.58;101181.56;4175888;28;20015;-65
2023/03/17 04:29:49;;;;;;;;;;;;;;;4.57;51.33;101188.72;4176620;28;20031;-64
2023/03/17 04:31:51;;;;;;;;;;;;;;;4.56;51.40;101176.34;4175716;28;20415;-65
2023/03/17 04:33:55;;;;;;;;;;;;;;;4.53;51.48;101168.56;4174812;28;20015;-65
2023/03/17 04:35:57;;;;;;;;;;;;;;;4.51;51.62;101166.03;4175868;28;20072;-68
2023/03/17 04:38:00;;;;;;;;;;;;;;;4.52;51.52;101161.53;4175358;28;20071;-65
2023/03/17 04:40:02;;;;;;;;;;;;;;;4.51;51.31;101174.06;4175748;28;20015;-65
2023/03/17 04:42:04;;;;;;;;;;;;;;;4.53;51.37;101171.25;4175056;28;19956;-67
2023/03/17 04:44:07;;;;;;;;;;;;;;;4.50;51.46;101167.00;4175852;28;20051;-65
2023/03/17 04:46:08;;;;;;;;;;;;;;;4.53;51.28;101173.06;4175996;28;20015;-64
2023/03/17 04:48:11;;;;;;;;;;;;;;;4.52;51.42;101185.59;4175898;28;20027;-67
2023/03/17 04:50:14;;;;;;;;;;;;;;;4.53;51.24;101170.38;4176056;28;20373;-65
2023/03/17 04:52:16;;;;;;;;;;;;;;;4.54;51.08;101169.41;4175309;28;20046;-65
2023/03/17 04:54:19;;;;;;;;;;;;;;;4.54;51.06;101177.44;4174408;28;20020;-65
2023/03/17 04:56:22;;;;;;;;;;;;;;;4.54;51.14;101174.78;4173920;28;20087;-64
2023/03/17 04:58:24;;;;;;;;;;;;;;;4.50;51.29;101175.03;4174645;28;20008;-63
2023/03/17 05:00:26;;;;;;;;;;;;;;;4.49;51.07;101175.97;4175764;28;20071;-66
2023/03/17 05:02:28;;;;;;;;;;;;;;;4.48;50.97;101174.31;4175840;28;19928;-65
2023/03/17 05:04:31;;;;;;;;;;;;;;;4.47;50.93;101171.75;4176204;28;20040;-64
2023/03/17 05:06:34;;;;;;;;;;;;;;;4.49;51.20;101177.81;4176432;28;20438;-65
2023/03/17 05:08:36;;;;;;;;;;;;;;;4.50;50.97;101171.50;4177682;28;20007;-65
2023/03/17 05:10:38;;;;;;;;;;;;;;;4.51;50.94;101171.38;4179720;28;20000;-66
2023/03/17 05:12:40;;;;;;;;;;;;;;;4.53;51.20;101170.38;4179630;28;19996;-65
2023/03/17 05:14:42;;;;;;;;;;;;;;;4.51;51.02;101163.34;4178096;28;20024;-63
2023/03/17 05:16:46;;;;;;;;;;;;;;;4.53;51.03;101157.00;4178532;28;20020;-65
2023/03/17 05:18:48;;;;;;;;;;;;;;;4.54;50.76;101153.38;4179594;28;19929;-66
2023/03/17 05:20:50;;;;;;;;;;;;;;;4.54;50.64;101151.53;4179214;28;20024;-66
2023/03/17 05:22:53;;;;;;;;;;;;;;;4.55;50.98;101131.00;4179208;28;20084;-65
2023/03/17 05:24:55;;;;;;;;;;;;;;;4.55;50.61;101141.69;4179923;28;20023;-64
2023/03/17 05:26:57;;;;;;;;;;;;;;;4.53;50.52;101143.63;4179137;28;20031;-65
2023/03/17 05:28:59;;;;;;;;;;;;;;;4.50;50.58;101148.28;4175963;28;20021;-65
2023/03/17 05:31:02;;;;;;;;;;;;;;;4.45;50.69;101141.59;4177451;28;20020;-66
2023/03/17 05:33:04;;;;;;;;;;;;;;;4.49;50.73;101151.06;4178412;28;20011;-65
2023/03/17 05:35:07;;;;;;;;;;;;;;;4.47;50.73;101150.38;4179958;28;20016;-67
2023/03/17 05:37:09;;;;;;;;;;;;;;;4.46;50.67;101154.00;4179056;28;20023;-66
2023/03/17 05:39:12;;;;;;;;;;;;;;;4.45;50.83;101153.16;4179538;28;20470;-65
2023/03/17 05:41:14;;;;;;;;;;;;;;;4.47;50.74;101158.38;4179155;28;20016;-65
2023/03/17 05:43:16;;;;;;;;;;;;;;;4.47;50.54;101153.03;4179351;28;19924;-64
2023/03/17 05:45:18;;;;;;;;;;;;;;;4.47;50.69;101145.84;4179178;28;20012;-65
2023/03/17 05:47:21;;;;;;;;;;;;;;;4.48;50.57;101142.22;4178840;28;20020;-65
2023/03/17 05:49:23;;;;;;;;;;;;;;;4.49;50.68;101156.44;4179366;28;20024;-66
2023/03/17 05:51:26;;;;;;;;;;;;;;;4.50;50.54;101155.47;4179281;28;20431;-65
2023/03/17 05:53:28;;;;;;;;;;;;;;;4.50;50.54;101163.47;4194234;28;20011;-65
2023/03/17 05:55:31;;;;;;;;;;;;;;;4.49;50.70;101157.25;4179389;28;20023;-65
2023/03/17 05:57:33;;;;;;;;;;;;;;;4.51;50.54;101162.47;4178456;28;20501;-66
2023/03/17 05:59:35;;;;;;;;;;;;;;;4.50;50.32;101158.97;4177575;28;20011;-66
2023/03/17 06:01:37;;;;;;;;;;;;;;;4.54;50.39;101164.06;4176982;28;20031;-65
2023/03/17 06:03:39;;;;;;;;;;;;;;;4.54;50.33;101167.59;4177488;28;19929;-66
2023/03/17 06:05:42;;;;;;;;;;;;;;;4.51;50.25;101173.19;4178559;28;21104;-65
2023/03/17 06:07:44;;;;;;;;;;;;;;;4.51;50.36;101170.50;4179297;28;20044;-66
2023/03/17 06:09:46;;;;;;;;;;;;;;;4.53;50.53;101173.94;4177979;28;20032;-66
2023/03/17 06:11:50;;;;;;;;;;;;;;;4.55;50.24;101163.09;4179036;28;20043;-66
2023/03/17 06:13:52;;;;;;;;;;;;;;;4.57;50.10;101161.97;4178723;28;20024;-65
2023/03/17 06:15:54;;;;;;;;;;;;;;;4.59;50.19;101137.78;4180317;28;20027;-67
2023/03/17 06:17:56;;;;;;;;;;;;;;;4.60;50.34;101140.31;4179121;28;20023;-66
2023/03/17 06:19:58;;;;;;;;;;;;;;;4.60;50.07;101143.00;4179431;28;20119;-66
2023/03/17 06:21:59;;;;;;;;;;;;;;;4.61;49.89;101141.19;4178888;28;20078;-65
2023/03/17 06:24:01;;;;;;;;;;;;;;;4.61;49.91;101147.38;4179142;28;20395;-65
2023/03/17 06:26:03;;;;;;;;;;;;;;;4.59;50.08;101152.03;4179899;28;20360;-65
2023/03/17 06:28:07;;;;;;;;;;;;;;;4.62;49.95;101158.91;4179192;28;20037;-65
2023/03/17 06:30:10;;;;;;;;;;;;;;;4.63;50.10;101149.94;4180453;28;20039;-66
2023/03/17 06:32:12;;;;;;;;;;;;;;;4.64;49.88;101162.31;4179346;28;20032;-65
2023/03/17 06:34:14;;;;;;;;;;;;;;;4.64;50.18;101171.19;4179403;28;20012;-65
2023/03/17 06:36:16;;;;;;;;;;;;;;;4.68;50.40;101161.09;4179424;28;20031;-65
2023/03/17 06:38:19;;;;;;;;;;;;;;;4.69;50.00;101160.97;4178711;28;20019;-66
2023/03/17 06:40:21;;;;;;;;;;;;;;;4.72;50.00;101157.19;4179841;28;20397;-65
2023/03/17 06:42:23;;;;;;;;;;;;;;;4.73;50.08;101156.19;4178738;28;20024;-66
2023/03/17 06:44:27;;;;;;;;;;;;;;;4.75;49.94;101150.72;4179398;28;20371;-64
2023/03/17 06:46:29;;;;;;;;;;;;;;;4.77;50.00;101154.97;4179006;28;20355;-65
2023/03/17 06:48:31;;;;;;;;;;;;;;;4.78;49.87;101151.31;4177964;28;20497;-66
2023/03/17 06:50:33;;;;;;;;;;;;;;;4.80;49.95;101144.00;4179248;28;20028;-65
2023/03/17 06:52:35;;;;;;;;;;;;;;;4.80;49.71;101138.66;4178489;28;20012;-66
2023/03/17 06:54:38;;;;;;;;;;;;;;;4.81;49.74;101150.19;4179796;28;20027;-65
2023/03/17 06:56:40;;;;;;;;;;;;;;;4.82;49.80;101150.06;4178840;28;20036;-65
2023/03/17 06:58:42;;;;;;;;;;;;;;;4.81;49.71;101153.75;4178731;28;20024;-65
2023/03/17 07:00:47;;;;;;;;;;;;;;;4.84;49.42;101139.22;4178685;28;20024;-65
2023/03/17 07:02:50;;;;;;;;;;;;;;;4.87;49.36;101131.81;4169115;28;20048;-65
2023/03/17 07:04:52;;;;;;;;;;;;;;;4.89;49.96;101129.00;4177877;28;20023;-65
2023/03/17 07:06:54;;;;;;;;;;;;;;;4.92;50.06;101130.56;4177120;28;20343;-65
2023/03/17 07:08:56;;;;;;;;;;;;;;;4.93;49.75;101141.13;4178477;28;20016;-64
2023/03/17 07:10:58;;;;;;;;;;;;;;;4.95;49.73;101133.81;4178309;28;20012;-66
2023/03/17 07:13:01;;;;;;;;;;;;;;;4.98;49.68;101138.06;4177445;28;20359;-66
2023/03/17 07:15:03;;;;;;;;;;;;;;;4.98;49.64;101127.34;4177670;28;20035;-63
2023/03/17 07:17:06;;;;;;;;;;;;;;;5.01;49.69;101132.44;4175374;28;20474;-65
2023/03/17 07:19:08;;;;;;;;;;;;;;;5.03;49.95;101125.13;4175242;28;20020;-66
2023/03/17 07:21:10;;;;;;;;;;;;;;;5.04;49.68;101116.97;4174817;28;20019;-66
2023/03/17 07:23:12;;;;;;;;;;;;;;;5.08;49.49;101116.69;4175690;28;20020;-65
2023/03/17 07:25:14;;;;;;;;;;;;;;;5.09;49.45;101103.19;4177536;28;20001;-65
2023/03/17 07:27:18;;;;;;;;;;;;;;;5.12;49.50;101099.41;4177863;28;21351;-66
2023/03/17 07:29:21;;;;;;;;;;;;;;;5.12;49.60;101091.38;4178454;28;20434;-66
2023/03/17 07:31:24;;;;;;;;;;;;;;;5.16;49.63;101088.28;4177355;28;20028;-66
2023/03/17 07:33:27;;;;;;;;;;;;;;;5.18;49.62;101077.44;4177704;28;20481;-67
2023/03/17 07:35:29;;;;;;;;;;;;;;;5.20;48.95;101075.47;4178906;28;20032;-66
2023/03/17 07:37:31;;;;;;;;;;;;;;;5.20;49.31;101071.00;4178068;28;20442;-65
2023/03/17 07:39:34;;;;;;;;;;;;;;;5.24;49.58;101091.16;4178775;28;20027;-65
2023/03/17 07:41:36;;;;;;;;;;;;;;;5.29;49.25;101097.94;4178111;28;20042;-65
2023/03/17 07:43:38;;;;;;;;;;;;;;;5.30;48.81;101073.69;4178164;28;20367;-66
2023/03/17 07:45:40;;;;;;;;;;;;;;;5.34;49.09;101055.53;4178869;28;19963;-65
2023/03/17 07:47:42;;;;;;;;;;;;;;;5.37;49.57;101064.13;4177631;28;20027;-65
2023/03/17 07:49:45;;;;;;;;;;;;;;;5.40;49.02;101082.59;4177817;28;20126;-66
2023/03/17 07:51:47;;;;;;;;;;;;;;;5.46;48.66;101085.75;4177603;28;20023;-66
2023/03/17 07:53:50;;;;;;;;;;;;;;;5.48;48.48;101089.13;4178499;28;20365;-65
2023/03/17 07:55:53;;;;;;;;;;;;;;;5.49;49.21;101091.69;4176577;28;19957;-67
2023/03/17 07:57:55;;;;;;;;;;;;;;;5.51;48.48;101081.66;4178091;28;20391;-66
2023/03/17 07:59:57;;;;;;;;;;;;;;;5.52;48.01;101088.72;4178224;28;20585;-66
2023/03/17 08:02:00;;;;;;;;;;;;;;;5.54;48.67;101105.50;4192249;28;20405;-65
2023/03/17 08:04:03;;;;;;;;;;;;;;;5.56;48.51;101100.88;4177833;28;20023;-65
2023/03/17 08:06:07;;;;;;;;;;;;;;;5.59;48.71;101084.53;4178098;28;19925;-66
2023/03/17 08:08:09;;;;;;;;;;;;;;;5.63;49.01;101090.47;4177406;28;20451;-66
2023/03/17 08:10:12;;;;;;;;;;;;;;;5.67;48.46;101089.19;4177899;28;20023;-65
2023/03/17 08:12:14;;;;;;;;;;;;;;;5.70;48.49;101101.47;4177716;28;20008;-66
2023/03/17 08:14:16;;;;;;;;;;;;;;;5.75;48.63;101093.88;4178142;28;20027;-66
2023/03/17 08:16:18;;;;;;;;;;;;;;;5.79;48.12;101103.34;4177761;28;20052;-65
2023/03/17 08:18:20;;;;;;;;;;;;;;;5.85;47.94;101091.22;4177286;28;20011;-66
2023/03/17 08:20:22;;;;;;;;;;;;;;;5.92;49.24;101093.22;4178247;28;20028;-66
2023/03/17 08:22:26;;;;;;;;;;;;;;;5.99;49.49;101092.69;4177355;28;20019;-66
2023/03/17 08:24:29;;;;;;;;;;;;;;;6.05;49.08;101086.75;4177971;28;20031;-66
2023/03/17 08:26:31;;;;;;;;;;;;;;;6.10;49.02;101081.84;4177403;28;19972;-65
2023/03/17 08:28:33;;;;;;;;;;;;;;;6.16;48.28;101089.34;4178144;28;20015;-65
2023/03/17 08:30:36;;;;;;;;;;;;;;;6.21;48.47;101094.28;4177537;28;20028;-67
2023/03/17 08:32:38;;;;;;;;;;;;;;;6.24;47.57;101076.06;4177053;28;20008;-68
2023/03/17 08:34:40;;;;;;;;;;;;;;;6.26;48.42;101070.56;4178011;28;20019;-67
2023/03/17 08:36:42;;;;;;;;;;;;;;;6.28;48.80;101066.72;4177366;28;20019;-67
2023/03/17 08:38:46;;;;;;;;;;;;;;;6.30;48.08;101071.97;4178082;28;20019;-67
2023/03/17 08:40:49;;;;;;;;;;;;;;;6.34;48.76;101080.59;4177604;28;20036;-68
2023/03/17 08:42:51;;;;;;;;;;;;;;;6.39;47.73;101089.91;4179721;28;20012;-67
2023/03/17 08:44:53;;;;;;;;;;;;;;;6.43;47.57;101087.78;4180766;28;20442;-67
2023/03/17 08:46:55;;;;;;;;;;;;;;;6.48;48.35;101097.09;4180823;28;20446;-67
2023/03/17 08:48:58;;;;;;;;;;;;;;;6.51;47.14;101084.41;4181254;28;21939;-67
2023/03/17 08:51:00;;;;;;;;;;;;;;;6.55;48.35;101077.75;4181353;28;20035;-65
2023/03/17 08:53:02;;;;;;;;;;;;;;;6.55;48.62;101067.00;4180288;28;20005;-65
2023/03/17 08:55:07;;;;;;;;;;;;;;;6.60;48.24;101060.25;4181347;28;20020;-66
2023/03/17 08:57:09;;;;;;;;;;;;;;;6.62;47.59;101058.25;4180138;28;20020;-66
2023/03/17 08:59:11;;;;;;;;;;;;;;;6.65;47.46;101054.44;4180937;28;20019;-66
2023/03/17 09:01:14;;;;;;;;;;;;;;;6.64;47.98;101042.84;4181039;28;20015;-67
2023/03/17 09:03:16;;;;;;;;;;;;;;;6.68;47.67;101038.06;4180390;28;20034;-66
2023/03/17 09:05:18;;;;;;;;;;;;;;;6.72;46.88;101047.50;4179117;28;20008;-67
2023/03/17 09:07:20;;;;;;;;;;;;;;;6.72;47.06;101039.44;4179230;28;19929;-67
2023/03/17 09:09:22;;;;;;;;;;;;;;;6.74;48.07;101045.53;4180926;28;20023;-67
2023/03/17 09:11:26;;;;;;;;;;;;;;;6.76;47.88;101048.91;4180136;28;20020;-65
2023/03/17 09:13:28;;;;;;;;;;;;;;;6.79;48.26;101040.56;4180761;28;20075;-64
2023/03/17 09:15:31;;;;;;;;;;;;;;;6.80;47.74;101042.25;4180617;28;20463;-65
2023/03/17 09:17:33;;;;;;;;;;;;;;;6.84;48.14;101032.91;4179338;28;20135;-65
2023/03/17 09:19:35;;;;;;;;;;;;;;;6.87;47.38;101028.25;4181035;28;20008;-65
2023/03/17 09:21:37;;;;;;;;;;;;;;;6.90;47.58;101023.44;4180415;28;20039;-65
2023/03/17 09:23:39;;;;;;;;;;;;;;;6.91;47.82;101022.47;4179785;28;20019;-64
2023/03/17 09:25:42;;;;;;;;;;;;;;;6.92;48.25;101023.28;4180188;28;20023;-65
2023/03/17 09:27:45;;;;;;;;;;;;;;;6.94;48.40;101016.75;4179950;28;19943;-65
2023/03/17 09:29:47;;;;;;;;;;;;;;;6.98;47.15;101020.03;4180478;28;20480;-67
2023/03/17 09:31:49;;;;;;;;;;;;;;;7.02;47.48;101024.97;4179798;28;20854;-64
2023/03/17 09:33:52;;;;;;;;;;;;;;;7.07;47.97;101013.78;4180376;28;20028;-66
2023/03/17 09:35:55;;;;;;;;;;;;;;;7.08;47.97;101020.81;4179720;28;20023;-67
2023/03/17 09:37:57;;;;;;;;;;;;;;;7.11;48.23;101015.16;4180179;28;20044;-67
2023/03/17 09:39:59;;;;;;;;;;;;;;;7.18;48.24;101007.38;4180572;28;20466;-67
2023/03/17 09:42:05;;;;;;;;;;;;;;;7.22;48.22;101006.94;4179499;28;20468;-68
2023/03/17 09:44:10;;;;;;;;;;;;;;;7.28;48.04;101010.84;4179677;28;20039;-64
2023/03/17 09:46:16;;;;;;;;;;;;;;;7.35;47.60;101003.88;4180060;28;20039;-65
2023/03/17 09:48:38;;;;;;;;;;;;;;;7.47;47.45;101007.19;4179714;28;20008;-66
2023/03/17 09:50:43;;;;;;;;;;;;;;;7.60;47.13;101016.75;4190135;28;20115;-65
2023/03/17 09:52:45;;;;;;;;;;;;;;;7.70;47.22;101013.00;4179401;28;19999;-65
2023/03/17 09:54:48;;;;;;;;;;;;;;;7.81;46.95;101011.94;4179162;28;20051;-65
2023/03/17 09:56:51;;;;;;;;;;;;;;;7.96;46.48;101031.06;4179453;28;20039;-65
2023/03/17 09:58:54;;;;;;;;;;;;;;;8.07;45.70;101020.13;4179780;28;20055;-65
2023/03/17 10:00:58;;;;;;;;;;;;;;;8.12;46.36;101012.41;4195337;28;20375;-64
2023/03/17 10:03:01;;;;;;;;;;;;;;;8.26;45.93;101015.53;4179408;28;20024;-65
2023/03/17 10:05:08;;;;;;;;;;;;;;;8.34;45.58;101007.56;4179568;28;20036;-65
2023/03/17 10:07:10;;;;;;;;;;;;;;;8.40;45.78;101000.69;4179704;28;20466;-65
2023/03/17 10:09:15;;;;;;;;;;;;;;;8.43;45.29;100997.69;4180171;28;20023;-64
2023/03/17 10:11:19;;;;;;;;;;;;;;;8.41;45.61;101002.38;4180048;28;20023;-64
2023/03/17 10:13:28;;;;;;;;;;;;;;;8.45;45.87;100993.88;4178798;28;20471;-64
2023/03/17 10:15:33;;;;;;;;;;;;;;;8.44;46.09;100994.03;4180137;28;20028;-64
2023/03/17 10:17:38;;;;;;;;;;;;;;;8.45;45.45;100990.34;4178725;28;20023;-64
2023/03/17 10:19:40;;;;;;;;;;;;;;;8.42;45.84;100994.16;4179622;28;20023;-64
2023/03/17 10:21:47;;;;;;;;;;;;;;;8.41;45.32;100999.69;4179273;28;20723;-64
2023/03/17 10:23:49;;;;;;;;;;;;;;;8.42;45.93;101004.09;4179458;28;20626;-64
2023/03/17 10:25:51;;;;;;;;;;;;;;;8.43;45.82;101001.28;4180396;28;20024;-65
2023/03/17 10:27:55;;;;;;;;;;;;;;;8.45;45.93;101001.13;4179269;28;20087;-65
2023/03/17 10:29:57;;;;;;;;;;;;;;;8.45;46.21;100996.56;4179237;28;19925;-65
2023/03/17 10:31:59;;;;;;;;;;;;;;;8.53;45.32;101001.16;4179047;28;20031;-65
2023/03/17 10:34:07;;;;;;;;;;;;;;;8.61;46.08;101000.38;4179653;28;20012;-65
2023/03/17 10:36:09;;;;;;;;;;;;;;;8.67;45.83;100997.06;4179370;28;20466;-67
2023/03/17 10:38:15;;;;;;;;;;;;;;;8.69;45.58;100991.53;4178881;28;20015;-65
2023/03/17 10:40:21;;;;;;;;;;;;;;;8.70;45.78;100985.09;4179685;28;20024;-66